Time;durP1;ratioP1;P1;durP2;ratioP2;P2;SDS_P1;SDS_P2;PMS_P1;PMS_P2;Temp;Humidity;BMP_temperature;BMP_pressure;BME280_temperature;BME280_humidity;BME280_pressure;Samples;Min_cycle;Max_cycle;Signal;HPM_P1;HPM_P2
2022/06/25 00:22:00;;;;;;;0.10;0.10;;;18.30;99.90;;;;;;5420060;22;20492;-93
2022/06/25 02:25:18;;;;;;;0.10;0.10;;;18.30;99.90;;;;;;4983763;28;20439;-94
2022/06/25 04:21:55;;;;;;;0.10;0.10;;;17.80;99.90;;;;;;5019240;28;20415;-92
2022/06/25 04:24:20;;;;;;;0.10;0.10;;;17.80;99.90;;;;;;5024997;28;20534;-87
2022/06/25 04:47:39;;;;;;;0.10;0.10;;;17.90;99.90;;;;;;5020417;23;20477;31
2022/06/25 04:50:06;;;;;;;0.10;0.00;;;17.90;99.90;;;;;;4965373;28;20509;-96
2022/06/25 04:52:32;;;;;;;0.10;0.10;;;18.00;99.90;;;;;;4980103;28;20474;-87
2022/06/25 05:01:20;;;;;;;0.10;0.00;;;18.00;99.90;;;;;;5060737;23;20497;-96
2022/06/25 05:06:28;;;;;;;0.10;0.10;;;18.20;99.90;;;;;;5075459;23;20500;-96
2022/06/25 05:08:53;;;;;;;0.10;0.00;;;18.20;99.90;;;;;;4990492;28;20523;-96
2022/06/25 05:11:19;;;;;;;0.10;0.10;;;18.30;99.90;;;;;;5004807;28;20479;-96
2022/06/25 05:13:45;;;;;;;0.10;0.00;;;18.40;99.90;;;;;;4994930;28;20189;-96
2022/06/25 05:16:10;;;;;;;0.10;0.10;;;18.40;99.90;;;;;;4996160;28;20215;-96
2022/06/25 05:18:36;;;;;;;0.10;0.00;;;18.50;99.90;;;;;;4987793;28;20222;-96
2022/06/25 05:21:02;;;;;;;0.07;0.00;;;18.60;99.90;;;;;;5013330;28;20192;-96
2022/06/25 05:32:40;;;;;;;0.10;0.00;;;19.00;99.90;;;;;;5159003;23;21027;-96
2022/06/25 05:35:09;;;;;;;0.10;0.00;;;18.90;99.90;;;;;;5081904;23;20223;-96
2022/06/25 05:37:37;;;;;;;0.00;0.00;;;19.10;99.90;;;;;;4953476;28;20278;-96
2022/06/25 05:43:24;;;;;;;0.10;0.00;;;19.10;99.90;;;;;;5005485;23;20473;-96
2022/06/25 05:52:00;;;;;;;0.10;0.00;;;19.40;99.90;;;;;;5121730;23;20569;-96
2022/06/25 05:54:25;;;;;;;0.10;0.00;;;19.50;99.90;;;;;;4997349;28;21803;-96
2022/06/25 05:56:51;;;;;;;0.10;0.10;;;19.70;99.90;;;;;;4983199;28;20531;-96
2022/06/25 05:59:16;;;;;;;0.10;0.00;;;19.70;99.90;;;;;;4994178;28;20260;-96
2022/06/25 06:01:42;;;;;;;0.07;0.00;;;19.80;99.90;;;;;;4977031;28;20564;-96
2022/06/25 06:04:07;;;;;;;0.10;0.00;;;19.90;99.90;;;;;;4973669;28;20198;-94
2022/06/25 06:06:33;;;;;;;0.10;0.00;;;20.00;99.90;;;;;;4987652;28;20220;-93
2022/06/25 06:08:58;;;;;;;0.07;0.00;;;20.10;99.90;;;;;;4992087;28;20203;-92
2022/06/25 06:11:24;;;;;;;0.10;0.00;;;20.20;99.90;;;;;;4991308;28;20661;-93
2022/06/25 06:13:49;;;;;;;0.10;0.00;;;20.30;99.90;;;;;;4973276;28;20280;-93
2022/06/25 06:16:15;;;;;;;0.10;0.10;;;20.10;99.90;;;;;;4978699;28;20197;-94
2022/06/25 06:18:40;;;;;;;0.10;0.00;;;20.20;99.90;;;;;;4968556;28;20197;-94
2022/06/25 06:21:06;;;;;;;0.10;0.00;;;20.20;99.90;;;;;;4969271;28;20185;-94
2022/06/25 06:23:31;;;;;;;0.10;0.00;;;20.40;99.90;;;;;;4992988;28;20189;-96
2022/06/25 06:25:57;;;;;;;0.10;0.00;;;20.40;99.90;;;;;;5000577;28;20177;-96
2022/06/25 06:28:22;;;;;;;0.10;0.00;;;20.50;99.90;;;;;;4976991;28;20205;-95
2022/06/25 06:30:48;;;;;;;0.10;0.00;;;20.50;99.90;;;;;;4965664;28;20182;-96
2022/06/25 06:33:13;;;;;;;0.10;0.00;;;20.50;99.90;;;;;;4978308;28;20236;-96
2022/06/25 06:35:39;;;;;;;0.10;0.00;;;20.70;99.90;;;;;;4976165;28;20391;-96
2022/06/25 06:38:04;;;;;;;0.10;0.00;;;20.70;99.90;;;;;;4977711;28;20202;-96
2022/06/25 06:40:30;;;;;;;0.10;0.00;;;20.80;99.90;;;;;;4985746;28;20261;-96
2022/06/25 06:42:56;;;;;;;0.10;0.00;;;20.90;99.90;;;;;;4990515;28;20189;-90
2022/06/25 06:45:22;;;;;;;0.07;0.00;;;20.90;99.90;;;;;;4976491;28;20216;-94
2022/06/25 06:47:47;;;;;;;0.10;0.00;;;20.90;99.90;;;;;;4972267;28;20190;-91
2022/06/25 06:50:13;;;;;;;0.10;0.00;;;20.90;99.90;;;;;;4965800;28;20503;-93
2022/06/25 06:52:38;;;;;;;0.10;0.00;;;20.90;99.90;;;;;;4980673;28;20275;-92
2022/06/25 06:55:05;;;;;;;0.10;0.00;;;20.80;99.90;;;;;;4985079;28;20189;-92
2022/06/25 06:57:32;;;;;;;0.10;0.00;;;20.80;99.90;;;;;;4977222;28;20193;-96
2022/06/25 06:59:58;;;;;;;0.10;0.00;;;20.80;99.90;;;;;;4956444;28;20441;-94
2022/06/25 07:02:27;;;;;;;0.10;0.00;;;20.90;99.90;;;;;;4969277;28;20492;-92
2022/06/25 07:04:53;;;;;;;0.10;0.00;;;21.10;99.90;;;;;;4964599;28;20440;-96
2022/06/25 07:07:19;;;;;;;0.10;0.00;;;21.20;99.90;;;;;;4963202;28;21002;-94
2022/06/25 07:09:44;;;;;;;0.10;0.00;;;21.20;99.90;;;;;;4972227;28;20190;-94
2022/06/25 07:12:10;;;;;;;0.10;0.00;;;21.30;99.90;;;;;;4967610;28;20578;-92
2022/06/25 07:14:35;;;;;;;0.10;0.00;;;21.50;99.90;;;;;;4990134;28;20196;-93
2022/06/25 07:17:01;;;;;;;0.10;0.00;;;21.60;99.90;;;;;;4985207;28;20217;-93
2022/06/25 07:19:27;;;;;;;0.10;0.00;;;21.70;99.90;;;;;;4965708;28;20186;-96
2022/06/25 07:21:54;;;;;;;0.10;0.00;;;21.90;99.90;;;;;;4993256;28;20278;-96
2022/06/25 07:24:20;;;;;;;0.10;0.00;;;22.20;99.90;;;;;;4983224;28;20216;-95
2022/06/25 07:26:46;;;;;;;0.10;0.00;;;22.20;99.90;;;;;;4984491;28;21045;-94
2022/06/25 07:29:12;;;;;;;0.07;0.00;;;22.20;99.90;;;;;;4977893;28;20457;-96
2022/06/25 07:31:37;;;;;;;0.10;0.00;;;22.20;99.90;;;;;;4961297;28;20543;-93
2022/06/25 07:34:03;;;;;;;0.10;0.00;;;22.10;99.90;;;;;;4970101;28;20197;-93
2022/06/25 07:36:28;;;;;;;0.10;0.00;;;22.40;99.90;;;;;;4977661;28;20190;-94
2022/06/25 07:38:54;;;;;;;0.10;0.00;;;22.50;99.90;;;;;;4980600;28;20556;-93
2022/06/25 07:41:20;;;;;;;0.10;0.00;;;22.60;99.90;;;;;;4984148;28;20651;-96
2022/06/25 07:43:46;;;;;;;0.10;0.00;;;22.70;99.90;;;;;;4970074;28;20202;-92
2022/06/25 07:46:11;;;;;;;0.10;0.00;;;22.80;99.90;;;;;;4968275;28;20197;-92
2022/06/25 07:48:38;;;;;;;0.10;0.00;;;23.10;99.90;;;;;;4971772;28;20193;-92
2022/06/25 07:53:48;;;;;;;0.10;0.00;;;23.30;99.90;;;;;;4982676;28;20525;-91
2022/06/25 07:56:13;;;;;;;0.10;0.00;;;23.40;99.90;;;;;;4983646;28;20459;-90
2022/06/25 07:58:39;;;;;;;0.10;0.00;;;23.60;99.90;;;;;;4976284;28;20275;-91
2022/06/25 08:01:05;;;;;;;0.10;0.00;;;23.80;99.90;;;;;;4968301;28;20220;-90
2022/06/25 08:03:31;;;;;;;0.10;0.00;;;23.90;99.90;;;;;;4975336;28;20451;-91
2022/06/25 08:05:57;;;;;;;0.10;0.00;;;23.80;99.90;;;;;;4976456;28;20197;-91
2022/06/25 08:08:23;;;;;;;0.10;0.00;;;23.80;99.90;;;;;;4976559;28;20198;-91
2022/06/25 08:10:49;;;;;;;0.10;0.00;;;23.90;99.90;;;;;;4974719;28;20515;-89
2022/06/25 08:13:15;;;;;;;0.10;0.00;;;24.00;99.90;;;;;;4978223;28;20990;-90
2022/06/25 08:15:40;;;;;;;0.10;0.00;;;24.10;99.90;;;;;;4980336;28;20465;-90
2022/06/25 08:18:06;;;;;;;0.10;0.00;;;23.80;99.90;;;;;;4986246;28;20193;-91
2022/06/25 08:20:31;;;;;;;0.07;0.00;;;23.90;99.90;;;;;;4987305;28;20201;-90
2022/06/25 08:22:57;;;;;;;0.10;0.00;;;24.20;99.90;;;;;;4961841;28;20837;-91
2022/06/25 08:25:23;;;;;;;0.07;0.00;;;24.30;99.90;;;;;;4986903;28;20217;-91
2022/06/25 08:27:50;;;;;;;0.10;0.00;;;24.40;99.90;;;;;;4969875;28;20268;-89
2022/06/25 08:30:17;;;;;;;0.10;0.00;;;24.70;99.90;;;;;;4971439;28;20609;-91
2022/06/25 08:32:43;;;;;;;0.00;0.00;;;24.90;99.90;;;;;;4979630;28;20476;-90
2022/06/25 08:35:09;;;;;;;0.00;0.00;;;24.60;99.90;;;;;;4956922;28;21178;-96
2022/06/25 08:37:38;;;;;;;0.10;0.00;;;24.70;99.90;;;;;;4987092;28;20453;-91
2022/06/25 08:40:06;;;;;;;0.10;0.00;;;24.90;99.90;;;;;;4972613;28;20664;-92
2022/06/25 08:42:32;;;;;;;0.10;0.00;;;25.20;99.90;;;;;;4984289;28;20437;-94
2022/06/25 08:44:57;;;;;;;0.10;0.00;;;25.40;99.90;;;;;;4987124;28;20467;-89
2022/06/25 08:47:23;;;;;;;0.10;0.00;;;25.60;99.90;;;;;;4974779;28;20190;-91
2022/06/25 08:49:48;;;;;;;0.00;0.00;;;25.60;99.90;;;;;;4965365;28;20199;-86
2022/06/25 08:52:17;;;;;;;0.10;0.00;;;25.50;99.90;;;;;;4982236;28;20454;-89
2022/06/25 08:54:43;;;;;;;0.00;0.00;;;25.60;99.90;;;;;;4988449;28;20197;-93
2022/06/25 08:57:09;;;;;;;0.10;0.00;;;25.80;99.90;;;;;;4985943;28;20457;-91
2022/06/25 08:59:35;;;;;;;0.07;0.00;;;25.40;99.90;;;;;;4988117;28;20450;-93
2022/06/25 09:02:01;;;;;;;0.00;0.00;;;25.80;99.90;;;;;;4962838;28;20272;-91
2022/06/25 09:04:26;;;;;;;0.07;0.00;;;26.30;99.90;;;;;;4989999;28;21171;-89
2022/06/25 09:07:09;;;;;;;0.00;0.00;;;26.30;99.90;;;;;;4966264;28;20189;-91
2022/06/25 09:09:35;;;;;;;0.10;0.00;;;26.30;99.90;;;;;;4982608;28;20215;-90
2022/06/25 09:12:08;;;;;;;0.10;0.00;;;26.10;99.90;;;;;;4989456;28;20980;-91
2022/06/25 09:14:35;;;;;;;0.10;0.00;;;26.30;99.90;;;;;;4979493;28;20217;-91
2022/06/25 09:17:12;;;;;;;0.10;0.00;;;26.60;99.90;;;;;;4976855;28;20526;-93
2022/06/25 09:19:49;;;;;;;0.10;0.00;;;26.90;99.90;;;;;;4988606;28;20463;-93
2022/06/25 09:22:21;;;;;;;0.10;0.00;;;26.70;99.90;;;;;;4965403;28;20915;-89
2022/06/25 09:24:53;;;;;;;0.10;0.00;;;26.90;99.90;;;;;;4957585;28;20432;-93
2022/06/25 09:27:36;;;;;;;0.10;0.00;;;27.20;99.90;;;;;;4983830;28;20447;-90
2022/06/25 09:30:13;;;;;;;0.10;0.00;;;27.10;99.90;;;;;;4956648;28;20508;-90
2022/06/25 09:32:47;;;;;;;0.10;0.00;;;27.20;99.90;;;;;;4971108;28;20477;-92
2022/06/25 09:35:27;;;;;;;0.00;0.00;;;27.50;99.90;;;;;;4982862;28;20443;-91
2022/06/25 09:37:52;;;;;;;0.10;0.00;;;27.30;99.90;;;;;;4973292;28;20452;-93
2022/06/25 09:40:18;;;;;;;0.10;0.00;;;27.30;99.90;;;;;;4983336;28;20445;-90
2022/06/25 09:42:46;;;;;;;0.00;0.00;;;27.30;99.90;;;;;;4973155;28;20649;-89
2022/06/25 09:45:13;;;;;;;0.10;0.00;;;27.60;99.90;;;;;;4965524;28;20290;-88
2022/06/25 09:47:40;;;;;;;0.00;0.00;;;27.30;99.90;;;;;;4967523;28;20967;-89
2022/06/25 09:50:12;;;;;;;0.10;0.00;;;27.50;99.90;;;;;;4957293;28;20436;-90
2022/06/25 09:52:48;;;;;;;0.00;0.00;;;27.70;99.90;;;;;;4980761;28;20495;-90
2022/06/25 09:55:14;;;;;;;0.10;0.00;;;28.00;99.90;;;;;;4970732;28;20488;-87
2022/06/25 09:57:40;;;;;;;0.10;0.00;;;28.00;99.90;;;;;;4983158;28;20491;-90
2022/06/25 10:00:06;;;;;;;0.07;0.00;;;27.70;99.90;;;;;;4961990;28;20188;-89
2022/06/25 10:02:32;;;;;;;0.10;0.00;;;27.70;99.90;;;;;;4980709;28;20239;-88
2022/06/25 10:05:01;;;;;;;0.10;0.00;;;27.90;99.90;;;;;;4956255;28;20448;-90
2022/06/25 10:10:20;;;;;;;0.07;0.00;;;26.80;99.90;;;;;;4981183;28;21016;-92
2022/06/25 10:12:47;;;;;;;0.10;0.00;;;26.30;99.90;;;;;;4980226;28;20490;-90
2022/06/25 10:15:19;;;;;;;0.10;0.00;;;26.20;99.90;;;;;;4970083;28;21193;-88
2022/06/25 10:17:49;;;;;;;0.10;0.00;;;26.20;99.90;;;;;;4960881;28;20535;-93
2022/06/25 10:20:16;;;;;;;0.07;0.00;;;27.50;99.90;;;;;;4955298;28;20460;-95
2022/06/25 10:22:43;;;;;;;0.07;0.00;;;27.40;99.90;;;;;;4978300;28;20461;-94
2022/06/25 10:25:15;;;;;;;0.07;0.00;;;26.80;99.90;;;;;;4973957;28;20452;-94
2022/06/25 10:27:43;;;;;;;0.10;0.00;;;26.50;99.90;;;;;;4965837;28;21399;-94
2022/06/25 10:30:11;;;;;;;0.10;0.00;;;26.10;99.90;;;;;;4963978;28;20498;-94
2022/06/25 10:32:42;;;;;;;0.07;0.00;;;25.90;99.90;;;;;;4973408;28;21324;-95
2022/06/25 10:35:08;;;;;;;0.07;0.00;;;25.50;99.90;;;;;;4966120;28;20436;-94
2022/06/25 10:38:02;;;;;;;0.10;0.00;;;25.60;99.90;;;;;;4975358;28;20451;-96
2022/06/25 10:40:33;;;;;;;0.10;0.00;;;25.60;99.90;;;;;;4975188;28;20181;-94
2022/06/25 10:43:04;;;;;;;0.10;0.00;;;25.60;99.90;;;;;;4976433;28;20447;-92
2022/06/25 10:45:44;;;;;;;0.00;0.00;;;25.80;99.90;;;;;;4967407;28;20541;-95
2022/06/25 10:48:10;;;;;;;0.10;0.00;;;25.70;99.90;;;;;;4983731;28;20471;-95
2022/06/25 10:50:36;;;;;;;0.10;0.00;;;25.80;99.90;;;;;;4972833;28;20444;-93
2022/06/25 10:53:07;;;;;;;0.07;0.00;;;25.90;99.90;;;;;;4968152;28;20303;-91
2022/06/25 10:55:46;;;;;;;0.10;0.00;;;25.90;99.90;;;;;;4983109;28;21008;-94
2022/06/25 10:58:23;;;;;;;0.00;0.00;;;25.50;99.90;;;;;;4984624;28;20471;-93
2022/06/25 11:00:57;;;;;;;0.10;0.00;;;25.70;99.90;;;;;;4981662;28;20440;-94
2022/06/25 11:03:28;;;;;;;0.07;0.00;;;26.00;99.90;;;;;;4957983;28;20461;-94
2022/06/25 11:06:16;;;;;;;0.10;0.00;;;26.30;99.90;;;;;;4974658;28;20448;-94
2022/06/25 11:08:42;;;;;;;0.00;0.00;;;27.00;99.90;;;;;;4975200;28;20964;-95
2022/06/25 11:11:08;;;;;;;0.00;0.00;;;28.40;99.90;;;;;;4982469;28;20449;-94
2022/06/25 11:13:34;;;;;;;0.10;0.00;;;27.80;99.90;;;;;;4977450;28;20228;-96
2022/06/25 11:16:12;;;;;;;0.10;0.00;;;27.70;99.90;;;;;;4975850;28;20188;-96
2022/06/25 11:18:53;;;;;;;0.10;0.00;;;27.90;99.90;;;;;;4978261;28;20460;-94
2022/06/25 11:21:35;;;;;;;0.07;0.00;;;27.60;99.90;;;;;;4972415;28;20549;-92
2022/06/25 11:24:25;;;;;;;0.10;0.00;;;27.00;99.90;;;;;;4977432;28;20486;-96
2022/06/25 11:29:49;;;;;;;0.10;0.00;;;26.90;99.90;;;;;;4977628;28;20436;-96
2022/06/25 11:32:23;;;;;;;0.10;0.00;;;26.60;99.90;;;;;;4989488;28;20508;-96
2022/06/25 11:34:53;;;;;;;0.10;0.00;;;26.50;99.90;;;;;;4980527;28;20491;-94
2022/06/25 11:37:20;;;;;;;0.07;0.00;;;26.50;99.90;;;;;;4984694;28;20495;-96
2022/06/25 11:39:47;;;;;;;0.10;0.00;;;26.70;99.90;;;;;;4977827;28;20448;-96
2022/06/25 11:42:14;;;;;;;0.10;0.00;;;27.50;99.90;;;;;;4973213;28;20456;-94
2022/06/25 11:44:45;;;;;;;0.10;0.00;;;28.80;99.90;;;;;;4982564;28;20461;-92
2022/06/25 11:47:29;;;;;;;0.00;0.00;;;30.00;99.90;;;;;;4979813;28;20456;-91
2022/06/25 11:49:55;;;;;;;0.00;0.00;;;30.60;99.90;;;;;;4972752;28;20444;-91
2022/06/25 11:52:23;;;;;;;0.10;0.00;;;30.30;99.90;;;;;;4973541;28;20537;-92
2022/06/25 11:54:49;;;;;;;0.10;0.00;;;29.20;99.90;;;;;;4979071;28;20185;-92
2022/06/25 11:57:26;;;;;;;0.10;0.00;;;29.30;99.90;;;;;;4967857;28;20448;-93
2022/06/25 11:59:53;;;;;;;0.10;0.00;;;29.70;99.90;;;;;;4991048;28;20453;-94
2022/06/25 12:02:20;;;;;;;0.07;0.00;;;29.00;99.90;;;;;;4973496;28;20451;-96
2022/06/25 12:04:51;;;;;;;0.10;0.00;;;29.20;99.90;;;;;;4968402;28;20459;-96
2022/06/25 12:07:20;;;;;;;0.10;0.00;;;28.90;99.90;;;;;;4965501;28;20487;-94
2022/06/25 12:09:47;;;;;;;0.10;0.00;;;29.40;99.90;;;;;;4986165;28;20571;-94
2022/06/25 12:12:13;;;;;;;0.10;0.00;;;30.60;99.90;;;;;;4977011;28;20826;-93
2022/06/25 12:14:40;;;;;;;0.10;0.00;;;31.30;99.90;;;;;;4982973;28;21275;-90
2022/06/25 12:17:06;;;;;;;0.00;0.00;;;31.40;99.90;;;;;;4982756;28;20800;-92
2022/06/25 12:19:52;;;;;;;0.00;0.00;;;31.30;99.90;;;;;;4989741;28;20444;-91
2022/06/25 12:22:26;;;;;;;0.07;0.00;;;31.40;99.90;;;;;;4992747;28;20180;-91
2022/06/25 12:24:54;;;;;;;0.00;0.00;;;30.40;99.90;;;;;;4987358;28;21000;-93
2022/06/25 12:27:20;;;;;;;0.00;0.00;;;28.80;99.90;;;;;;4982396;28;20586;-91
2022/06/25 12:29:50;;;;;;;0.00;0.00;;;28.10;99.90;;;;;;4981102;28;20515;-91
2022/06/25 12:32:16;;;;;;;0.00;0.00;;;28.40;99.90;;;;;;4974936;28;21205;-93
2022/06/25 12:34:49;;;;;;;0.07;0.00;;;29.30;99.90;;;;;;4975839;28;20537;-91
2022/06/25 12:37:28;;;;;;;0.00;0.00;;;29.80;99.90;;;;;;4978982;28;20549;-93
2022/06/25 12:39:57;;;;;;;0.00;0.00;;;29.30;99.90;;;;;;4967695;28;20451;-92
2022/06/25 12:42:33;;;;;;;0.10;0.00;;;30.00;99.90;;;;;;4993057;28;20448;-91
2022/06/25 12:44:59;;;;;;;0.10;0.00;;;30.80;99.90;;;;;;4988267;28;20448;-92
2022/06/25 12:47:25;;;;;;;0.00;0.00;;;31.20;99.90;;;;;;4971994;28;20556;-89
2022/06/25 12:49:55;;;;;;;0.00;0.00;;;31.50;99.90;;;;;;4972162;28;20636;-88
2022/06/25 12:52:34;;;;;;;0.07;0.00;;;31.70;99.90;;;;;;4979573;28;20741;-93
2022/06/25 12:55:00;;;;;;;0.00;0.00;;;31.00;99.90;;;;;;4987395;28;20456;-88
2022/06/25 12:57:31;;;;;;;0.10;0.00;;;29.80;99.90;;;;;;4956300;28;20499;-92
2022/06/25 12:59:58;;;;;;;0.10;0.00;;;28.90;99.90;;;;;;4977233;28;20774;-86
2022/06/25 13:02:24;;;;;;;0.07;0.00;;;28.40;99.90;;;;;;4966847;28;20591;-94
2022/06/25 13:04:50;;;;;;;0.10;0.00;;;28.60;99.90;;;;;;4968501;28;20499;-95
2022/06/25 13:07:16;;;;;;;0.10;0.00;;;29.00;99.90;;;;;;4969943;28;20472;-89
2022/06/25 13:09:43;;;;;;;0.00;0.00;;;29.80;99.90;;;;;;4991264;28;20475;-92
2022/06/25 13:12:09;;;;;;;0.00;0.00;;;29.90;99.90;;;;;;4990493;28;20495;-93
2022/06/25 13:14:35;;;;;;;0.10;0.00;;;30.20;99.90;;;;;;4975134;28;20460;-89
2022/06/25 13:17:01;;;;;;;0.10;0.00;;;29.60;99.90;;;;;;4970136;28;20483;-91
2022/06/25 13:19:28;;;;;;;0.00;0.00;;;29.30;99.90;;;;;;4992520;28;20440;-91
2022/06/25 13:21:55;;;;;;;0.07;0.00;;;29.50;99.90;;;;;;4981183;28;20458;-88
2022/06/25 13:24:21;;;;;;;0.00;0.00;;;29.50;99.90;;;;;;4971009;28;20446;-92
2022/06/25 13:26:46;;;;;;;0.07;0.00;;;28.80;99.90;;;;;;4970494;28;20444;-91
2022/06/25 13:29:12;;;;;;;0.10;0.00;;;28.30;99.90;;;;;;4970370;28;20197;-91
2022/06/25 13:31:37;;;;;;;0.10;0.00;;;28.20;99.90;;;;;;4964539;28;20204;-94
2022/06/25 13:34:03;;;;;;;0.10;0.00;;;28.70;99.90;;;;;;4971333;28;20221;-89
2022/06/25 13:36:30;;;;;;;0.10;0.00;;;28.80;99.90;;;;;;4975449;28;20288;-91
2022/06/25 13:38:56;;;;;;;0.10;0.00;;;28.70;99.90;;;;;;4974464;28;20318;-94
2022/06/25 13:41:22;;;;;;;0.10;0.00;;;28.40;99.90;;;;;;4970737;28;21075;-93
2022/06/25 13:43:54;;;;;;;0.07;0.00;;;27.50;99.90;;;;;;4958080;28;20205;-95
2022/06/25 13:46:21;;;;;;;0.10;0.00;;;27.10;99.90;;;;;;4972410;28;20514;-96
2022/06/25 13:48:50;;;;;;;0.10;0.00;;;26.70;99.90;;;;;;4978024;28;20453;-96
2022/06/25 13:51:16;;;;;;;0.10;0.00;;;26.50;99.90;;;;;;4988711;28;20441;-95
2022/06/25 13:53:43;;;;;;;0.10;0.00;;;26.50;99.90;;;;;;4968541;28;20505;-96
2022/06/25 13:56:08;;;;;;;0.10;0.00;;;26.50;99.90;;;;;;4967995;28;21150;-92
2022/06/25 13:58:34;;;;;;;0.10;0.00;;;26.50;99.90;;;;;;4972800;28;21096;-93
2022/06/25 14:01:04;;;;;;;0.00;0.00;;;26.60;99.90;;;;;;4963363;28;20287;-95
2022/06/25 14:03:30;;;;;;;0.00;0.00;;;26.40;99.90;;;;;;4976151;28;20663;-96
2022/06/25 14:05:56;;;;;;;0.10;0.00;;;26.30;99.90;;;;;;4989883;28;20444;-95
2022/06/25 14:08:22;;;;;;;0.10;0.00;;;26.20;99.90;;;;;;4972594;28;20590;-94
2022/06/25 14:10:48;;;;;;;0.00;0.00;;;26.10;99.90;;;;;;4981696;28;20494;-91
2022/06/25 14:13:14;;;;;;;0.10;0.00;;;26.10;99.90;;;;;;4967817;28;20248;-95
2022/06/25 14:15:40;;;;;;;0.10;0.00;;;26.00;99.90;;;;;;4960515;28;20452;-93
2022/06/25 14:18:06;;;;;;;0.10;0.00;;;25.90;99.90;;;;;;4973642;28;20593;-91
2022/06/25 14:20:31;;;;;;;0.10;0.00;;;26.00;99.90;;;;;;4972588;28;20465;-90
2022/06/25 14:22:57;;;;;;;0.10;0.00;;;26.00;99.90;;;;;;4964314;28;20193;-89
2022/06/25 14:25:24;;;;;;;0.10;0.00;;;26.10;99.90;;;;;;4970644;28;20185;-92
2022/06/25 14:27:56;;;;;;;0.10;0.00;;;26.30;99.90;;;;;;4966434;28;20220;-92
2022/06/25 14:30:22;;;;;;;0.10;0.00;;;26.20;99.90;;;;;;4984792;28;20536;-90
2022/06/25 14:32:48;;;;;;;0.10;0.00;;;26.00;99.90;;;;;;4978197;28;20485;-93
2022/06/25 14:35:15;;;;;;;0.07;0.00;;;25.90;99.90;;;;;;4978262;28;20502;-96
2022/06/25 14:42:20;;;;;;;0.00;0.00;;;25.80;99.90;;;;;;4995370;28;20471;-91
2022/06/25 14:43:26;;;;;;;0.00;0.00;;;25.70;99.90;;;;;;4978934;28;20480;-94
2022/06/25 14:45:52;;;;;;;0.10;0.00;;;25.60;99.90;;;;;;4964642;28;20903;-92
2022/06/25 14:48:18;;;;;;;0.10;0.00;;;25.40;99.90;;;;;;4979560;28;20451;-95
2022/06/25 14:50:43;;;;;;;0.00;0.00;;;25.50;99.90;;;;;;4975137;28;20444;-93
2022/06/25 14:53:10;;;;;;;0.10;0.00;;;25.50;99.90;;;;;;4985146;28;20262;-93
2022/06/25 14:55:35;;;;;;;0.10;0.00;;;25.50;99.90;;;;;;4976703;28;20200;-91
2022/06/25 14:58:01;;;;;;;0.10;0.00;;;25.50;99.90;;;;;;4983264;28;20460;-93
2022/06/25 15:00:27;;;;;;;0.00;0.00;;;25.60;99.90;;;;;;4974122;28;20169;-94
2022/06/25 15:02:53;;;;;;;0.00;0.00;;;26.00;99.90;;;;;;4978462;28;20457;-93
2022/06/25 15:05:19;;;;;;;0.00;0.00;;;26.10;99.90;;;;;;4959996;28;20657;-93
2022/06/25 15:07:46;;;;;;;0.10;0.00;;;26.20;99.90;;;;;;4975999;28;20246;-94
2022/06/25 15:10:11;;;;;;;0.10;0.00;;;26.30;99.90;;;;;;4984763;28;20456;-92
2022/06/25 15:12:38;;;;;;;0.10;0.00;;;26.30;99.90;;;;;;4973142;28;20793;-93
2022/06/25 15:15:04;;;;;;;0.00;0.00;;;26.00;99.90;;;;;;4983139;28;20188;-92
2022/06/25 15:17:30;;;;;;;0.00;0.00;;;25.80;99.90;;;;;;4979639;28;20452;-96
2022/06/25 15:19:56;;;;;;;0.00;0.00;;;25.70;99.90;;;;;;5004912;28;20458;-95
2022/06/25 15:22:27;;;;;;;0.07;0.00;;;25.60;99.90;;;;;;4983366;28;20193;-96
2022/06/25 15:24:54;;;;;;;0.10;0.00;;;25.40;99.90;;;;;;4970538;28;20456;-96
2022/06/25 15:27:19;;;;;;;0.00;0.00;;;25.30;99.90;;;;;;4965741;28;20464;-94
2022/06/25 15:29:45;;;;;;;0.10;0.00;;;25.30;99.90;;;;;;4988792;28;20444;-93
2022/06/25 15:32:12;;;;;;;0.10;0.00;;;25.20;99.90;;;;;;4975208;28;20210;-93
2022/06/25 15:34:38;;;;;;;0.00;0.00;;;25.30;99.90;;;;;;4994780;28;20194;-96
2022/06/25 15:39:31;;;;;;;0.10;0.00;;;25.10;99.90;;;;;;4993287;28;20206;-96
2022/06/25 15:44:35;;;;;;;0.10;0.00;;;25.10;99.90;;;;;;5051796;23;20245;31
2022/06/25 15:50:03;;;;;;;0.00;0.00;;;25.10;99.90;;;;;;5005741;23;20540;-90
2022/06/25 15:52:29;;;;;;;0.10;0.00;;;25.20;99.90;;;;;;4999040;28;20444;-89
2022/06/25 15:54:55;;;;;;;0.07;0.00;;;25.20;99.90;;;;;;4971119;28;20460;-95
2022/06/25 15:57:20;;;;;;;0.00;0.00;;;25.20;99.90;;;;;;4991796;28;20455;-87
2022/06/25 16:08:12;;;;;;;0.07;0.00;;;25.00;99.90;;;;;;5004473;23;20520;-96
2022/06/25 16:10:43;;;;;;;0.10;0.00;;;25.00;99.90;;;;;;4995345;23;20429;-96
2022/06/25 16:13:12;;;;;;;0.07;0.00;;;24.90;99.90;;;;;;4985643;28;20260;-96
2022/06/25 16:15:38;;;;;;;0.10;0.00;;;24.90;99.90;;;;;;4991292;28;20449;-96
2022/06/25 16:23:07;;;;;;;0.10;0.00;;;25.00;99.90;;;;;;4964347;29;20990;-96
2022/06/25 16:25:32;;;;;;;0.07;0.00;;;25.10;99.90;;;;;;4952533;29;20415;-97
2022/06/25 16:33:51;;;;;;;0.10;0.00;;;25.30;99.90;;;;;;5039226;23;20484;-96
2022/06/25 16:36:23;;;;;;;0.07;0.00;;;25.20;99.90;;;;;;5011274;28;20511;-96
2022/06/25 16:38:50;;;;;;;0.00;0.00;;;25.30;99.90;;;;;;5016137;28;20444;-93
2022/06/25 16:45:43;;;;;;;0.10;0.00;;;25.40;99.90;;;;;;4928649;28;20535;-93
2022/06/25 16:48:12;;;;;;;0.10;0.00;;;25.50;99.90;;;;;;4992905;28;20461;-96
2022/06/25 16:59:23;;;;;;;0.00;0.00;;;25.40;99.90;;;;;;4979886;23;20685;-95
2022/06/25 17:01:50;;;;;;;0.10;0.00;;;25.40;99.90;;;;;;4994126;28;20610;-96
2022/06/25 17:04:16;;;;;;;0.10;0.00;;;25.20;99.90;;;;;;4987881;28;20533;-96
2022/06/25 17:06:42;;;;;;;0.10;0.00;;;25.40;99.90;;;;;;5020481;28;20530;-96
2022/06/25 17:09:08;;;;;;;0.10;0.00;;;25.50;99.90;;;;;;5001576;28;20572;-96
2022/06/25 17:11:33;;;;;;;0.07;0.00;;;25.60;99.90;;;;;;5000329;23;20493;-96
2022/06/25 17:14:00;;;;;;;0.00;0.00;;;25.70;99.90;;;;;;4977943;28;20234;-94
2022/06/25 17:16:26;;;;;;;0.10;0.00;;;25.60;99.90;;;;;;4987266;28;20197;-96
2022/06/25 17:18:52;;;;;;;0.10;0.00;;;25.60;99.90;;;;;;4970683;28;20459;-97
2022/06/25 17:21:18;;;;;;;0.00;0.00;;;25.70;99.90;;;;;;4967272;28;20177;-96
2022/06/25 17:23:46;;;;;;;0.10;0.00;;;25.60;99.90;;;;;;4981561;28;20480;-96
2022/06/25 17:26:13;;;;;;;0.00;0.00;;;25.60;99.90;;;;;;4981499;28;20429;-94
2022/06/25 17:28:39;;;;;;;0.10;0.00;;;25.40;99.90;;;;;;4977087;28;20520;-94
2022/06/25 17:31:05;;;;;;;0.00;0.00;;;25.20;99.90;;;;;;4976511;28;20488;-96
2022/06/25 17:33:32;;;;;;;0.00;0.00;;;25.20;99.90;;;;;;4963918;28;20297;-96
2022/06/25 17:36:00;;;;;;;0.07;0.00;;;25.10;99.90;;;;;;4963868;28;20418;-96
2022/06/25 17:38:48;;;;;;;0.07;0.00;;;25.20;99.90;;;;;;5002316;23;20476;-96
2022/06/25 17:41:14;;;;;;;0.10;0.00;;;25.10;99.90;;;;;;5008403;28;20440;-96
2022/06/25 17:43:40;;;;;;;0.00;0.00;;;25.00;99.90;;;;;;5038889;23;20799;-96
2022/06/25 17:46:06;;;;;;;0.00;0.00;;;25.10;99.90;;;;;;4990074;28;20183;-96
2022/06/25 17:48:31;;;;;;;0.07;0.07;;;25.00;99.90;;;;;;4978017;28;20434;-94
2022/06/25 17:50:57;;;;;;;0.10;0.00;;;24.80;99.90;;;;;;4976553;28;20190;-96
2022/06/25 17:53:23;;;;;;;0.00;0.00;;;25.00;99.90;;;;;;5001395;23;20335;-96
2022/06/25 17:55:48;;;;;;;0.00;0.00;;;25.00;99.90;;;;;;5003261;28;20202;-96
2022/06/25 17:58:14;;;;;;;0.07;0.00;;;25.10;99.90;;;;;;4994118;28;20192;-94
2022/06/25 18:00:43;;;;;;;0.07;0.00;;;24.90;99.90;;;;;;4977173;28;20212;-94
2022/06/25 18:03:09;;;;;;;0.10;0.00;;;24.90;99.90;;;;;;4976023;28;20196;-93
2022/06/25 18:05:35;;;;;;;0.07;0.00;;;24.90;99.90;;;;;;4970075;28;20455;-91
2022/06/25 18:08:01;;;;;;;0.07;0.00;;;24.70;99.90;;;;;;4974053;28;20455;-92
2022/06/25 18:10:27;;;;;;;0.10;0.00;;;24.70;99.90;;;;;;4974747;28;20204;-90
2022/06/25 18:12:53;;;;;;;0.10;0.00;;;24.60;99.90;;;;;;4980126;28;20476;-96
2022/06/25 18:15:19;;;;;;;0.00;0.00;;;24.50;99.90;;;;;;4981478;28;20216;-94
2022/06/25 18:17:44;;;;;;;0.10;0.00;;;24.30;99.90;;;;;;5004908;28;22034;-89
2022/06/25 18:20:10;;;;;;;0.00;0.00;;;24.20;99.90;;;;;;4988501;28;20200;-87
2022/06/25 18:22:36;;;;;;;0.07;0.00;;;24.10;99.90;;;;;;4989341;28;20189;-89
2022/06/25 18:25:02;;;;;;;0.10;0.00;;;24.10;99.90;;;;;;4982624;28;20502;-90
2022/06/25 18:27:28;;;;;;;0.10;0.00;;;24.10;99.90;;;;;;4990336;28;20192;-88
2022/06/25 18:29:54;;;;;;;0.07;0.00;;;24.00;99.90;;;;;;4985406;28;20449;-88
2022/06/25 18:32:21;;;;;;;0.10;0.00;;;24.00;99.90;;;;;;4987742;28;20704;-88
2022/06/25 18:34:46;;;;;;;0.10;0.00;;;24.10;99.90;;;;;;4986089;28;20467;-89
2022/06/25 18:37:12;;;;;;;0.10;0.00;;;24.00;99.90;;;;;;4987722;28;20992;-90
2022/06/25 18:39:37;;;;;;;0.00;0.00;;;24.20;99.90;;;;;;4986238;28;20213;-90
2022/06/25 18:42:03;;;;;;;0.00;0.00;;;24.00;99.90;;;;;;4996403;28;20188;-90
2022/06/25 18:44:32;;;;;;;0.00;0.00;;;24.00;99.90;;;;;;4977551;28;20197;-89
2022/06/25 18:46:58;;;;;;;0.00;0.00;;;24.00;99.90;;;;;;4983639;28;20464;-89